Time;durP1;ratioP1;P1;durP2;ratioP2;P2;SDS_P1;SDS_P2;PMS_P1;PMS_P2;Temp;Humidity;BMP_temperature;BMP_pressure;BME280_temperature;BME280_humidity;BME280_pressure;Samples;Min_cycle;Max_cycle;Signal;HPM_P1;HPM_P2
2021/09/05 00:02:16;;;;;;;6.23;3.00;;;;;;;22.40;54.35;97580.63;5009216;28;20233;-65
2021/09/05 00:04:43;;;;;;;3.10;2.80;;;;;;;22.19;54.64;97550.22;5020638;28;20224;-64
2021/09/05 00:07:10;;;;;;;3.07;2.50;;;;;;;22.66;54.60;97620.66;4992165;28;20265;-65
2021/09/05 00:09:37;;;;;;;3.70;3.23;;;;;;;22.79;53.94;97638.06;5010913;28;20250;-64
2021/09/05 00:12:04;;;;;;;3.33;2.70;;;;;;;22.80;53.40;97637.25;5009890;28;20202;-63
2021/09/05 00:14:30;;;;;;;5.43;2.90;;;;;;;22.80;52.80;97656.03;5017213;28;20244;-63
2021/09/05 00:16:57;;;;;;;4.07;2.53;;;;;;;22.79;53.70;97630.38;5014114;28;20293;-64
2021/09/05 00:19:24;;;;;;;3.53;2.67;;;;;;;22.39;53.54;97564.41;5012225;28;20201;-64
2021/09/05 00:21:50;;;;;;;5.23;3.00;;;;;;;22.78;54.08;97626.09;5017317;28;20290;-64
2021/09/05 00:24:17;;;;;;;3.70;2.70;;;;;;;22.68;53.91;97612.16;5009818;28;20402;-64
2021/09/05 00:26:46;;;;;;;3.43;2.60;;;;;;;22.81;53.24;97632.19;5013067;28;20651;-64
2021/09/05 00:29:16;;;;;;;3.67;3.00;;;;;;;22.65;52.86;97606.97;5010034;28;20680;-65
2021/09/05 00:31:43;;;;;;;3.43;2.50;;;;;;;22.43;53.00;97568.78;4987077;28;20297;-64
2021/09/05 00:34:10;;;;;;;4.10;2.90;;;;;;;22.81;53.38;97639.00;4991640;28;20256;-64
2021/09/05 00:36:36;;;;;;;3.03;2.50;;;;;;;22.47;53.72;97582.56;5009106;28;20285;-65
2021/09/05 00:39:04;;;;;;;4.03;2.93;;;;;;;22.74;53.98;97630.25;5009286;28;20293;-64
2021/09/05 00:41:31;;;;;;;4.17;2.87;;;;;;;22.74;53.35;97632.81;5012229;28;20583;-64
2021/09/05 00:44:05;;;;;;;3.97;2.50;;;;;;;22.81;52.52;97645.00;5003712;28;20304;-64
2021/09/05 00:46:33;;;;;;;3.13;2.73;;;;;;;21.77;52.56;97474.84;5014265;28;20741;-65
2021/09/05 00:48:59;;;;;;;4.03;2.63;;;;;;;22.81;53.04;97651.81;5012297;28;20248;-65
2021/09/05 00:51:38;;;;;;;4.57;2.53;;;;;;;22.80;53.49;97650.91;5009737;28;20313;-64
2021/09/05 00:54:06;;;;;;;4.03;2.63;;;;;;;22.79;53.72;97654.31;5015668;28;20779;-65
2021/09/05 00:56:35;;;;;;;2.67;2.37;;;;;;;22.80;53.30;97652.63;5008607;28;20241;-64
2021/09/05 00:59:05;;;;;;;2.83;2.53;;;;;;;22.82;52.78;97663.78;5008715;28;20206;-65
2021/09/05 01:01:31;;;;;;;3.17;2.47;;;;;;;22.81;51.98;97657.81;5005921;28;20222;-64
2021/09/05 01:03:58;;;;;;;2.83;2.50;;;;;;;22.67;51.87;97633.50;5005305;28;20237;-65
2021/09/05 01:06:25;;;;;;;3.97;2.77;;;;;;;22.68;52.22;97642.06;5007616;28;20294;-65
2021/09/05 01:08:52;;;;;;;3.83;2.40;;;;;;;22.80;52.63;97662.88;5010003;28;20206;-64
2021/09/05 01:11:18;;;;;;;3.53;2.57;;;;;;;22.79;52.98;97658.56;4988783;28;20692;-65
2021/09/05 01:13:45;;;;;;;3.90;2.47;;;;;;;22.80;53.06;97660.31;5009561;28;20652;-64
2021/09/05 01:16:31;;;;;;;3.30;2.50;;;;;;;22.81;52.19;97659.50;5008683;28;20256;-65
2021/09/05 01:19:11;;;;;;;2.60;2.20;;;;;;;22.81;52.21;97664.63;5010038;28;20325;-65
2021/09/05 01:21:38;;;;;;;3.60;2.53;;;;;;;22.79;52.54;97669.69;5008922;28;20663;-65
2021/09/05 01:24:05;;;;;;;4.27;2.40;;;;;;;22.79;52.93;97667.13;5019933;28;20954;-63
2021/09/05 01:26:33;;;;;;;4.63;2.60;;;;;;;22.79;53.26;97662.00;5008038;28;20240;-65
2021/09/05 01:29:00;;;;;;;2.63;2.40;;;;;;;22.77;52.80;97666.22;5004020;28;20244;-65
2021/09/05 01:31:41;;;;;;;2.87;2.27;;;;;;;22.80;51.93;97665.44;5008116;28;20673;-65
2021/09/05 01:34:08;;;;;;;3.60;2.70;;;;;;;22.80;52.10;97673.13;5009468;28;20245;-65
2021/09/05 01:36:35;;;;;;;2.87;2.40;;;;;;;21.87;52.42;97522.00;5010033;28;20206;-65
2021/09/05 01:39:02;;;;;;;3.10;2.50;;;;;;;22.78;52.83;97662.84;5008067;28;20296;-65
2021/09/05 01:41:29;;;;;;;2.77;2.30;;;;;;;22.79;52.95;97672.25;5017280;28;20285;-65
2021/09/05 01:43:59;;;;;;;2.93;2.53;;;;;;;22.80;52.58;97676.53;5011060;28;20638;-65
2021/09/05 01:46:26;;;;;;;3.13;2.57;;;;;;;22.81;51.84;97680.00;5012015;28;20667;-65
2021/09/05 01:48:52;;;;;;;2.80;2.37;;;;;;;22.80;51.90;97679.09;5010700;28;20210;-64
2021/09/05 01:51:19;;;;;;;4.40;2.40;;;;;;;22.59;52.10;97640.09;5009262;28;20260;-64
2021/09/05 01:53:45;;;;;;;3.00;2.50;;;;;;;22.80;52.58;97675.69;5009987;28;20676;-63
2021/09/05 01:56:12;;;;;;;2.63;2.43;;;;;;;22.77;52.71;97667.94;5009447;28;20206;-64
2021/09/05 01:58:38;;;;;;;2.40;2.20;;;;;;;22.80;52.68;97668.00;5009014;28;20657;-63
2021/09/05 02:01:05;;;;;;;2.30;2.10;;;;;;;22.08;51.72;97554.16;5010519;28;20646;-65
2021/09/05 02:03:32;;;;;;;2.93;2.33;;;;;;;22.81;52.14;97682.56;5019316;28;20297;-65
2021/09/05 02:05:59;;;;;;;3.60;2.63;;;;;;;22.79;51.99;97679.06;5017552;28;20233;-65
2021/09/05 02:08:25;;;;;;;2.70;2.13;;;;;;;22.79;52.77;97673.94;5016501;28;20252;-64
2021/09/05 02:10:52;;;;;;;2.90;2.60;;;;;;;22.79;53.15;97685.06;5012869;28;20869;-65
2021/09/05 02:13:18;;;;;;;2.30;2.10;;;;;;;22.57;52.78;97644.34;5013128;28;20237;-62
2021/09/05 02:15:45;;;;;;;2.47;2.23;;;;;;;22.81;52.01;97680.00;5014079;28;20722;-65
2021/09/05 02:18:11;;;;;;;4.47;2.23;;;;;;;22.81;51.44;97691.13;5018601;28;20224;-65
2021/09/05 02:20:38;;;;;;;2.90;2.37;;;;;;;22.82;50.56;97687.72;5019386;28;20292;-65
2021/09/05 02:23:05;;;;;;;2.53;2.33;;;;;;;22.83;51.40;97688.59;5016628;28;20260;-65
2021/09/05 02:25:31;;;;;;;2.00;1.80;;;;;;;22.36;51.17;97610.44;5012947;28;20336;-65
2021/09/05 02:27:58;;;;;;;2.50;2.30;;;;;;;22.80;51.63;97691.91;5023790;28;20301;-65
2021/09/05 02:30:24;;;;;;;2.90;2.50;;;;;;;21.87;52.15;97527.97;5012469;28;20308;-65
2021/09/05 02:32:51;;;;;;;2.13;1.93;;;;;;;22.81;51.93;97693.69;5019942;28;20725;-64
2021/09/05 02:35:17;;;;;;;2.53;2.20;;;;;;;22.83;51.30;97691.16;5015828;28;20433;-64
2021/09/05 02:37:44;;;;;;;2.20;2.00;;;;;;;22.03;51.31;97555.75;5015245;28;20288;-65
2021/09/05 02:40:11;;;;;;;2.33;2.13;;;;;;;22.81;51.73;97696.25;5017368;28;20666;-65
2021/09/05 02:42:37;;;;;;;2.43;2.23;;;;;;;22.81;52.05;97696.25;5013374;28;20236;-65
2021/09/05 02:45:05;;;;;;;2.20;2.10;;;;;;;22.62;52.43;97660.69;5014454;28;20222;-65
2021/09/05 02:47:33;;;;;;;2.60;2.07;;;;;;;22.82;52.30;97702.22;5014947;28;20202;-64
2021/09/05 02:49:59;;;;;;;2.33;2.07;;;;;;;22.59;51.34;97667.44;5019773;28;20648;-64
2021/09/05 02:52:26;;;;;;;2.07;1.87;;;;;;;22.73;51.28;97689.16;5012025;28;20317;-65
2021/09/05 02:54:52;;;;;;;2.23;2.03;;;;;;;22.81;51.82;97711.63;5013588;28;20272;-65
2021/09/05 02:57:19;;;;;;;2.33;2.13;;;;;;;22.75;52.20;97697.75;5009724;28;20349;-65
2021/09/05 02:59:45;;;;;;;2.20;2.00;;;;;;;22.80;52.32;97699.59;5013237;28;20296;-65
2021/09/05 03:02:12;;;;;;;2.10;1.90;;;;;;;22.80;51.72;97699.59;5009859;28;20234;-64
2021/09/05 03:04:39;;;;;;;2.40;2.20;;;;;;;22.82;51.89;97702.22;5018968;28;20318;-65
2021/09/05 03:07:06;;;;;;;2.33;2.13;;;;;;;22.42;51.80;97635.31;5009712;28;20242;-64
2021/09/05 03:09:32;;;;;;;2.00;1.90;;;;;;;22.81;51.87;97697.94;5010706;28;20293;-65
2021/09/05 03:11:59;;;;;;;2.13;2.00;;;;;;;22.80;52.25;97698.75;5019875;28;20308;-65
2021/09/05 03:14:25;;;;;;;2.70;2.20;;;;;;;22.81;52.68;97695.34;5010630;28;20253;-65
2021/09/05 03:16:52;;;;;;;2.23;2.03;;;;;;;22.32;52.40;97613.72;5010269;28;20229;-65
2021/09/05 03:19:18;;;;;;;2.33;2.00;;;;;;;22.82;51.65;97692.84;5011691;28;20297;-65
2021/09/05 03:21:46;;;;;;;2.30;2.10;;;;;;;22.81;51.84;97696.25;5023043;28;20204;-65
2021/09/05 03:24:13;;;;;;;2.50;2.30;;;;;;;22.81;52.09;97696.25;5010996;28;20245;-65
2021/09/05 03:26:40;;;;;;;2.47;2.10;;;;;;;22.80;52.40;97698.75;5011000;28;20296;-65
2021/09/05 03:29:06;;;;;;;2.23;2.03;;;;;;;22.74;52.46;97689.19;5010469;28;20234;-65
2021/09/05 03:31:33;;;;;;;2.30;2.10;;;;;;;22.82;52.38;97697.09;5009051;28;20711;-62
2021/09/05 03:34:00;;;;;;;2.10;1.90;;;;;;;22.73;51.20;97686.59;5016106;28;20292;-65
2021/09/05 03:36:26;;;;;;;1.93;1.83;;;;;;;22.66;50.70;97677.00;5010410;28;20293;-64
2021/09/05 03:38:53;;;;;;;2.43;2.23;;;;;;;22.83;51.20;97714.22;5019408;28;20710;-65
2021/09/05 03:41:19;;;;;;;1.90;1.80;;;;;;;22.69;51.38;97695.03;5010654;28;20281;-63
2021/09/05 03:43:46;;;;;;;2.30;2.10;;;;;;;22.28;51.43;97626.38;5011109;28;20241;-65
2021/09/05 03:46:13;;;;;;;1.90;1.80;;;;;;;22.81;51.77;97714.19;5013848;28;20727;-64
2021/09/05 03:48:39;;;;;;;2.07;1.80;;;;;;;22.82;51.56;97712.47;5012104;28;20293;-64
2021/09/05 03:51:06;;;;;;;2.10;1.90;;;;;;;22.81;51.01;97721.88;5006779;28;20304;-65
2021/09/05 03:53:32;;;;;;;2.23;2.03;;;;;;;22.72;51.06;97695.13;5016081;28;20233;-64
2021/09/05 03:55:59;;;;;;;2.17;1.97;;;;;;;22.81;51.54;97715.88;5013897;28;20253;-62
2021/09/05 03:58:26;;;;;;;1.90;1.80;;;;;;;22.80;51.67;97721.81;5014599;28;20652;-65
2021/09/05 04:00:52;;;;;;;2.17;1.97;;;;;;;22.80;51.76;97720.09;5011725;28;20230;-64
2021/09/05 04:03:20;;;;;;;2.20;2.00;;;;;;;22.82;51.40;97723.59;5007082;28;20202;-65
2021/09/05 04:05:47;;;;;;;2.33;2.13;;;;;;;22.77;51.26;97714.06;5009762;28;20231;-65
2021/09/05 04:08:15;;;;;;;2.23;2.10;;;;;;;22.81;51.44;97728.69;5013681;28;20218;-65
2021/09/05 04:10:42;;;;;;;2.20;2.00;;;;;;;22.73;51.82;97715.66;5011002;28;20218;-65
2021/09/05 04:13:09;;;;;;;2.23;2.03;;;;;;;22.55;52.12;97684.41;5000624;28;20241;-65
2021/09/05 04:15:36;;;;;;;1.87;1.77;;;;;;;22.81;51.88;97721.88;5010006;28;20295;-65
2021/09/05 04:18:02;;;;;;;2.07;1.97;;;;;;;22.81;51.22;97721.88;5009685;28;20202;-65
2021/09/05 04:20:29;;;;;;;1.77;1.67;;;;;;;22.81;50.94;97723.56;5014079;28;20287;-65
2021/09/05 04:22:55;;;;;;;2.87;2.27;;;;;;;22.79;51.46;97723.50;5005093;28;20205;-65
2021/09/05 04:25:22;;;;;;;2.23;2.03;;;;;;;22.77;51.94;97719.19;5004386;22;1135978;-70
2021/09/05 04:27:48;;;;;;;1.77;1.67;;;;;;;22.72;52.16;97723.31;4969166;28;20639;-71
2021/09/05 04:30:15;;;;;;;2.27;2.07;;;;;;;22.82;51.76;97730.41;4980713;28;20215;-71
2021/09/05 04:32:42;;;;;;;1.80;1.70;;;;;;;22.68;51.30;97714.66;4985278;28;20250;-70
2021/09/05 04:35:09;;;;;;;1.80;1.70;;;;;;;22.73;51.41;97707.97;4973306;28;20255;-72
2021/09/05 04:37:36;;;;;;;2.30;1.80;;;;;;;22.53;51.79;97683.47;4975787;28;20675;-69
2021/09/05 04:40:04;;;;;;;1.90;1.80;;;;;;;22.67;52.22;97706.91;4951818;28;20225;-70
2021/09/05 04:42:31;;;;;;;1.93;1.70;;;;;;;22.54;51.86;97686.91;4955493;28;20649;-70
2021/09/05 04:44:58;;;;;;;2.20;2.00;;;;;;;22.47;51.49;97669.63;4959361;28;20256;-69
2021/09/05 04:47:24;;;;;;;1.97;1.70;;;;;;;22.35;51.28;97657.31;4972009;28;20681;-69
2021/09/05 04:49:51;;;;;;;1.87;1.70;;;;;;;22.72;51.65;97721.63;4980368;28;20239;-69
2021/09/05 04:52:17;;;;;;;2.00;1.90;;;;;;;22.80;52.05;97738.03;4971138;28;20289;-70
2021/09/05 04:54:44;;;;;;;1.83;1.73;;;;;;;21.99;51.93;97614.47;4971230;28;20255;-70
2021/09/05 04:57:11;;;;;;;1.80;1.70;;;;;;;22.81;51.63;97737.25;4976405;28;20246;-70
2021/09/05 04:59:38;;;;;;;2.00;1.80;;;;;;;22.62;50.68;97711.91;4986328;28;20203;-71
2021/09/05 05:02:04;;;;;;;2.20;1.83;;;;;;;22.81;50.98;97744.94;4971156;28;20679;-71
2021/09/05 05:04:31;;;;;;;2.07;1.93;;;;;;;22.35;51.57;97674.41;4977629;28;20208;-70
2021/09/05 05:06:58;;;;;;;1.90;1.80;;;;;;;22.75;51.46;97749.88;4971783;28;20238;-70
2021/09/05 05:09:25;;;;;;;2.27;2.10;;;;;;;22.65;51.71;97737.63;4973241;28;20627;-70
2021/09/05 05:11:51;;;;;;;1.77;1.67;;;;;;;22.68;51.17;97740.28;4973724;28;20654;-72
2021/09/05 05:14:18;;;;;;;2.00;1.80;;;;;;;22.81;51.73;97765.44;4977365;28;20295;-70
2021/09/05 05:16:44;;;;;;;1.90;1.80;;;;;;;22.81;51.35;97769.69;4954827;28;20231;-69
2021/09/05 05:19:11;;;;;;;2.23;2.00;;;;;;;22.80;51.16;97773.91;4985621;28;20234;-72
2021/09/05 05:21:37;;;;;;;2.03;1.90;;;;;;;22.81;51.75;97773.13;4970589;28;20231;-70
2021/09/05 05:24:04;;;;;;;2.17;1.97;;;;;;;22.65;51.29;97754.72;4972097;28;20246;-70
2021/09/05 05:26:31;;;;;;;2.07;1.80;;;;;;;22.76;50.62;97773.78;4969234;28;20262;-70
2021/09/05 05:28:57;;;;;;;1.90;1.80;;;;;;;22.68;51.17;97760.75;4973137;28;20245;-70
2021/09/05 05:31:24;;;;;;;2.03;1.83;;;;;;;22.53;51.01;97737.28;4969859;28;20287;-70
2021/09/05 05:33:51;;;;;;;1.80;1.70;;;;;;;22.41;51.79;97728.34;4975110;28;20208;-70
2021/09/05 05:36:20;;;;;;;1.90;1.80;;;;;;;22.66;51.56;97762.44;4953908;28;20310;-69
2021/09/05 05:38:46;;;;;;;1.83;1.73;;;;;;;22.74;50.91;97778.03;4963412;28;20243;-72
2021/09/05 05:41:14;;;;;;;1.97;1.77;;;;;;;22.81;51.15;97793.63;4974884;28;20750;-71
2021/09/05 05:43:41;;;;;;;1.80;1.70;;;;;;;22.82;51.05;97794.47;4970438;28;20277;-71
2021/09/05 05:46:08;;;;;;;2.03;1.90;;;;;;;22.81;51.63;97791.06;4951155;28;20282;-68
2021/09/05 05:48:35;;;;;;;1.97;1.80;;;;;;;21.93;51.59;97638.19;4961038;28;20210;-71
2021/09/05 05:51:01;;;;;;;1.90;1.70;;;;;;;22.59;51.08;97757.94;4968212;28;20266;-70
2021/09/05 05:53:29;;;;;;;2.13;1.70;;;;;;;22.66;51.04;97770.13;4948100;28;20203;-72
2021/09/05 05:55:56;;;;;;;1.80;1.70;;;;;;;22.73;51.38;97782.28;4970209;28;20281;-74
2021/09/05 05:58:22;;;;;;;1.97;1.87;;;;;;;22.81;51.69;97798.75;4960974;28;20236;-70
2021/09/05 06:01:06;;;;;;;1.67;1.57;;;;;;;22.49;51.53;97744.78;4956885;28;20684;-71
2021/09/05 06:03:36;;;;;;;1.90;1.80;;;;;;;22.69;51.21;97780.47;4975461;28;20655;-71
2021/09/05 06:06:04;;;;;;;1.97;1.87;;;;;;;22.83;51.09;97796.22;4959048;28;20232;-73
2021/09/05 06:08:30;;;;;;;2.10;1.90;;;;;;;22.83;51.33;97804.75;4958129;28;20204;-70
2021/09/05 06:10:57;;;;;;;1.67;1.57;;;;;;;22.82;51.71;97803.03;4974109;28;20258;-71
2021/09/05 06:13:23;;;;;;;1.80;1.70;;;;;;;22.81;51.68;97803.00;4960259;28;20319;-70
2021/09/05 06:15:50;;;;;;;2.00;1.80;;;;;;;22.84;51.18;97809.09;4962492;28;20643;-71
2021/09/05 06:18:17;;;;;;;2.10;1.90;;;;;;;22.79;50.51;97796.94;4960525;28;20301;-71
2021/09/05 06:20:43;;;;;;;1.90;1.80;;;;;;;22.82;50.21;97804.72;4977800;28;20294;-72
2021/09/05 06:23:10;;;;;;;1.90;1.80;;;;;;;22.85;50.16;97803.13;4955305;28;20918;-70
2021/09/05 06:25:36;;;;;;;1.80;1.70;;;;;;;22.82;50.40;97800.47;4960049;28;20322;-71
2021/09/05 06:28:03;;;;;;;2.00;1.80;;;;;;;22.85;50.83;97812.50;4963546;28;20250;-69
2021/09/05 06:30:30;;;;;;;2.03;1.80;;;;;;;22.66;50.81;97775.25;4965464;28;21116;-70
2021/09/05 06:32:56;;;;;;;1.80;1.70;;;;;;;22.77;50.43;97799.47;4964592;28;20278;-71
2021/09/05 06:35:23;;;;;;;2.10;2.00;;;;;;;22.58;50.42;97768.16;4964953;28;20311;-70
2021/09/05 06:37:49;;;;;;;1.70;1.60;;;;;;;22.77;50.54;97801.19;4960580;28;20595;-70
2021/09/05 06:40:16;;;;;;;1.80;1.70;;;;;;;22.52;51.00;97763.72;4958202;28;20299;-72
2021/09/05 06:42:43;;;;;;;1.87;1.77;;;;;;;22.80;51.73;97814.94;4970193;28;20674;-71
2021/09/05 06:45:10;;;;;;;1.90;1.80;;;;;;;22.59;50.99;97775.03;4979565;28;20228;-70
2021/09/05 06:47:36;;;;;;;1.80;1.70;;;;;;;22.67;50.53;97787.22;4966448;28;20211;-72
2021/09/05 06:50:03;;;;;;;2.30;2.10;;;;;;;22.81;50.67;97816.69;4963551;28;20235;-71
2021/09/05 06:52:30;;;;;;;2.10;1.90;;;;;;;22.87;51.00;97826.22;4957712;28;20305;-70
2021/09/05 06:54:57;;;;;;;1.97;1.83;;;;;;;22.87;51.17;97828.78;4956947;28;20311;-70
2021/09/05 06:57:24;;;;;;;2.37;2.17;;;;;;;22.87;52.22;97836.47;4960780;28;20286;-71
2021/09/05 06:59:51;;;;;;;8.90;5.40;;;;;;;22.83;56.28;97825.25;4959589;28;20370;-71
2021/09/05 07:02:20;;;;;;;10.47;5.70;;;;;;;22.89;58.81;97832.28;4971075;28;20240;-70
2021/09/05 07:04:47;;;;;;;8.57;5.90;;;;;;;22.81;59.82;97813.25;4964481;28;20244;-70
2021/09/05 07:07:21;;;;;;;7.50;5.67;;;;;;;22.58;60.56;97780.94;4946493;28;20202;-71
2021/09/05 07:09:48;;;;;;;8.43;5.60;;;;;;;22.88;60.28;97833.97;4977045;28;20287;-70
2021/09/05 07:12:14;;;;;;;5.70;5.10;;;;;;;22.88;60.90;97835.66;4962505;28;20678;-71
2021/09/05 07:14:41;;;;;;;7.50;6.03;;;;;;;22.75;62.05;97819.06;4959074;28;20758;-71
2021/09/05 07:17:07;;;;;;;9.87;7.73;;;;;;;22.87;62.65;97849.28;4975924;28;20663;-70
2021/09/05 07:19:34;;;;;;;11.13;8.60;;;;;;;22.85;63.96;97853.50;4960318;28;20214;-72
2021/09/05 07:22:01;;;;;;;11.63;8.70;;;;;;;22.79;64.35;97849.06;4964505;28;20236;-70
2021/09/05 07:24:27;;;;;;;11.57;9.07;;;;;;;22.73;65.02;97840.31;4959518;28;20259;-71
2021/09/05 07:26:54;;;;;;;11.30;9.17;;;;;;;22.78;64.89;97857.59;4985039;28;20243;-70
2021/09/05 07:29:20;;;;;;;12.67;9.40;;;;;;;22.78;65.05;97862.72;4971808;28;20254;-70
2021/09/05 07:31:47;;;;;;;14.90;9.33;;;;;;;22.72;65.22;97847.16;4983884;28;20227;-71
2021/09/05 07:34:14;;;;;;;12.07;9.57;;;;;;;22.74;65.42;97855.75;4954873;28;20235;-71
2021/09/05 07:36:41;;;;;;;11.00;9.33;;;;;;;22.74;65.75;97862.59;4978390;28;20254;-69
2021/09/05 07:39:09;;;;;;;9.90;8.87;;;;;;;22.61;66.07;97843.41;4971783;28;20235;-70
2021/09/05 07:41:36;;;;;;;9.97;8.97;;;;;;;22.71;66.56;97863.34;4974032;28;20235;-70
2021/09/05 07:44:03;;;;;;;10.80;9.70;;;;;;;22.57;67.06;97843.25;4985980;28;20664;-70
2021/09/05 07:46:29;;;;;;;11.43;8.87;;;;;;;22.68;67.07;97862.41;4970615;28;20539;-70
2021/09/05 07:48:56;;;;;;;10.93;9.30;;;;;;;22.62;67.11;97860.50;4971368;28;20290;-71
2021/09/05 07:51:25;;;;;;;10.23;8.40;;;;;;;22.62;64.63;97863.06;4968846;28;20820;-72
2021/09/05 07:53:53;;;;;;;10.17;8.97;;;;;;;22.60;64.44;97866.41;4968223;28;20294;-74
2021/09/05 07:56:20;;;;;;;11.90;7.87;;;;;;;22.34;64.60;97816.03;4970744;28;20719;-71
2021/09/05 07:58:47;;;;;;;11.13;8.50;;;;;;;22.28;64.86;97815.84;4952721;28;20290;-72
2021/09/05 08:01:16;;;;;;;9.90;8.53;;;;;;;22.56;64.95;97862.03;4973124;28;20293;-71
2021/09/05 08:03:43;;;;;;;9.17;8.27;;;;;;;22.54;64.95;97861.97;4970256;28;20234;-71
2021/09/05 08:06:10;;;;;;;9.63;7.70;;;;;;;22.49;65.32;97852.38;4974776;28;20231;-70
2021/09/05 08:08:37;;;;;;;9.70;8.70;;;;;;;22.55;65.17;97867.97;4971541;28;20239;-71
2021/09/05 08:11:04;;;;;;;9.23;7.60;;;;;;;22.54;64.99;97872.22;4975927;28;20305;-71
2021/09/05 08:13:31;;;;;;;9.40;7.93;;;;;;;22.54;65.08;97874.78;4959083;28;20219;-72
2021/09/05 08:16:01;;;;;;;12.00;8.00;;;;;;;22.54;65.05;97874.78;4970449;28;20306;-70
2021/09/05 08:18:29;;;;;;;7.90;7.10;;;;;;;22.48;65.12;97863.44;4975291;28;20287;-71
2021/09/05 08:20:56;;;;;;;11.67;8.37;;;;;;;22.23;65.01;97820.84;4983819;28;20210;-71
2021/09/05 08:23:23;;;;;;;9.13;8.00;;;;;;;22.48;64.98;97861.75;4938420;29;20240;-70
2021/09/05 08:25:49;;;;;;;9.50;8.00;;;;;;;22.56;65.12;97872.28;4991600;28;20282;-71
2021/09/05 08:28:16;;;;;;;12.03;7.30;;;;;;;22.48;64.55;97858.31;4969955;28;20246;-70
2021/09/05 08:30:43;;;;;;;9.10;7.93;;;;;;;22.40;65.04;97852.97;4970598;28;20282;-72
2021/09/05 08:33:10;;;;;;;9.70;8.00;;;;;;;22.50;64.96;97869.50;4952940;28;20224;-70
2021/09/05 08:35:37;;;;;;;8.20;7.40;;;;;;;22.11;65.04;97802.53;4982018;28;20289;-71
2021/09/05 08:38:04;;;;;;;9.53;8.03;;;;;;;22.31;65.20;97841.56;4955038;28;20246;-69
2021/09/05 08:40:30;;;;;;;8.87;7.97;;;;;;;22.47;64.89;97865.13;4975335;28;20235;-71
2021/09/05 08:42:57;;;;;;;8.63;7.50;;;;;;;22.56;65.28;97879.97;4961220;28;20284;-72
2021/09/05 08:45:23;;;;;;;8.47;7.57;;;;;;;22.56;64.82;97875.69;4971411;28;20255;-71
2021/09/05 08:47:50;;;;;;;8.90;7.90;;;;;;;22.46;65.32;97865.06;4975143;28;20282;-71
2021/09/05 08:50:16;;;;;;;8.30;7.40;;;;;;;22.54;65.22;97879.03;4950871;28;20208;-73
2021/09/05 08:52:43;;;;;;;8.33;7.53;;;;;;;22.45;65.28;97864.22;4995846;28;20310;-68
2021/09/05 08:55:10;;;;;;;7.60;6.90;;;;;;;22.57;65.21;97880.00;4979068;28;20766;-72
2021/09/05 08:57:36;;;;;;;8.87;7.73;;;;;;;22.50;65.10;97872.94;4975041;28;20238;-69
2021/09/05 09:00:03;;;;;;;8.33;7.10;;;;;;;22.59;65.07;97890.31;4968497;28;20246;-71
2021/09/05 09:02:47;;;;;;;9.17;7.13;;;;;;;22.58;65.08;97884.31;4977580;28;20203;-71
2021/09/05 09:05:39;;;;;;;7.93;7.13;;;;;;;22.58;65.09;97891.97;4971586;28;20289;-71
2021/09/05 09:08:07;;;;;;;9.43;7.43;;;;;;;22.50;65.20;97866.94;4986004;28;20254;-71
2021/09/05 09:10:49;;;;;;;10.77;7.93;;;;;;;22.49;65.32;97871.19;4965064;28;20323;-71
2021/09/05 09:13:30;;;;;;;11.37;8.20;;;;;;;22.45;65.54;97874.47;4959374;28;21224;-71
2021/09/05 09:15:57;;;;;;;8.87;7.53;;;;;;;22.57;65.48;97889.38;4963757;28;20315;-71
2021/09/05 09:18:28;;;;;;;7.80;7.00;;;;;;;22.32;65.67;97838.19;4973982;28;20291;-73
2021/09/05 09:20:56;;;;;;;7.20;6.20;;;;;;;22.58;66.71;97888.53;4978427;28;20285;-72
2021/09/05 09:23:27;;;;;;;8.67;7.07;;;;;;;22.46;67.25;97858.28;4961324;28;20836;-72
2021/09/05 09:26:03;;;;;;;9.73;7.97;;;;;;;22.59;67.12;97885.19;4980795;28;20304;-68
2021/09/05 09:28:34;;;;;;;8.87;7.10;;;;;;;22.60;65.39;97885.22;4961218;28;20282;-72
2021/09/05 09:31:14;;;;;;;7.07;6.43;;;;;;;22.57;63.53;97880.00;4976692;28;20206;-71
2021/09/05 09:33:42;;;;;;;8.50;6.47;;;;;;;22.40;61.83;97837.59;4976407;28;20223;-71
2021/09/05 09:36:11;;;;;;;9.37;6.10;;;;;;;22.64;60.89;97881.94;4971949;28;20278;-71
2021/09/05 09:38:38;;;;;;;8.83;6.23;;;;;;;22.48;59.54;97843.84;4967990;28;20238;-70
2021/09/05 09:41:14;;;;;;;8.87;5.90;;;;;;;22.71;58.82;97875.31;4952826;28;20239;-71
2021/09/05 09:43:48;;;;;;;5.87;5.27;;;;;;;22.73;57.71;97884.75;4974859;28;20351;-71
2021/09/05 09:46:16;;;;;;;8.13;5.77;;;;;;;22.71;56.93;97877.88;4969960;28;20326;-70
2021/09/05 09:48:44;;;;;;;6.00;5.40;;;;;;;22.62;55.97;97852.81;4970663;28;20235;-71
2021/09/05 09:51:11;;;;;;;7.67;5.13;;;;;;;22.71;55.41;97873.59;4956564;28;20254;-73
2021/09/05 09:53:40;;;;;;;5.90;5.10;;;;;;;22.74;54.72;97868.56;4962023;28;20338;-72
2021/09/05 09:56:11;;;;;;;5.97;5.37;;;;;;;22.53;54.04;97826.06;4984414;28;20302;-70
2021/09/05 09:58:38;;;;;;;6.23;5.33;;;;;;;22.79;53.38;97868.69;4968049;28;20282;-71
2021/09/05 10:01:05;;;;;;;6.83;4.93;;;;;;;22.82;53.07;97867.09;4978441;28;20242;-70
2021/09/05 10:03:32;;;;;;;4.77;4.37;;;;;;;22.59;52.00;97824.53;4960456;28;20214;-74
2021/09/05 10:05:59;;;;;;;6.10;5.17;;;;;;;22.92;52.07;97873.38;4976541;28;20222;-71
2021/09/05 10:08:26;;;;;;;5.87;4.57;;;;;;;22.86;52.42;97865.50;4967425;28;20290;-71
2021/09/05 10:10:54;;;;;;;5.07;4.50;;;;;;;22.84;52.69;97859.47;4970186;28;20717;-71
2021/09/05 10:13:21;;;;;;;5.53;4.80;;;;;;;22.87;53.08;97863.00;4961303;28;20233;-71
2021/09/05 10:15:47;;;;;;;5.33;4.67;;;;;;;22.96;53.08;97878.63;4944203;28;20318;-69
2021/09/05 10:18:14;;;;;;;4.73;4.20;;;;;;;22.98;52.42;97865.88;4950711;28;20263;-71
2021/09/05 10:20:41;;;;;;;5.50;4.50;;;;;;;22.97;51.77;97867.53;4969459;28;20298;-70
2021/09/05 10:23:07;;;;;;;4.60;4.20;;;;;;;22.91;51.87;97858.81;4953127;28;20336;-72
2021/09/05 10:28:05;;;;;;;5.60;5.00;;;;;;;22.91;52.69;97859.69;4948369;29;20636;-71
2021/09/05 10:30:31;;;;;;;4.57;4.17;;;;;;;22.98;52.83;97865.88;4951643;28;20255;-72
2021/09/05 10:32:59;;;;;;;4.33;3.93;;;;;;;22.93;52.30;97857.16;4948074;28;20310;-71
2021/09/05 10:35:25;;;;;;;5.20;4.27;;;;;;;23.01;51.56;97863.38;4948081;29;20251;-71
2021/09/05 10:40:41;;;;;;;4.50;4.10;;;;;;;22.92;51.99;97852.88;4935619;29;20292;-69
2021/09/05 10:43:08;;;;;;;4.63;4.10;;;;;;;22.66;52.26;97792.31;4927373;29;20317;-72
2021/09/05 10:45:35;;;;;;;4.10;3.70;;;;;;;22.92;52.71;97840.91;4930278;29;20258;-73
2021/09/05 10:48:01;;;;;;;4.17;3.77;;;;;;;22.93;52.22;97844.34;4932455;29;20644;-71
2021/09/05 10:50:35;;;;;;;4.20;3.80;;;;;;;22.95;51.52;97850.41;4942689;29;20229;-71
2021/09/05 10:53:20;;;;;;;6.83;4.07;;;;;;;23.03;50.89;97864.28;4927222;29;20279;-67
2021/09/05 10:56:12;;;;;;;5.07;3.60;;;;;;;23.04;50.65;97858.34;4942663;29;20652;-73
2021/09/05 10:58:38;;;;;;;4.07;3.67;;;;;;;23.03;50.80;97859.16;4944494;29;20228;-72
2021/09/05 11:01:29;;;;;;;3.90;3.50;;;;;;;23.01;51.29;97863.38;4949528;28;20255;-71
2021/09/05 11:04:12;;;;;;;3.70;3.40;;;;;;;23.01;51.68;97858.25;4944057;28;20585;-70
2021/09/05 11:06:40;;;;;;;4.10;3.70;;;;;;;23.02;51.41;97855.75;4936553;28;20254;-71
2021/09/05 11:09:25;;;;;;;4.13;3.73;;;;;;;23.02;50.74;97853.19;4935915;29;20737;-72
2021/09/05 11:12:06;;;;;;;4.77;3.50;;;;;;;23.01;50.81;97855.69;4944899;29;20283;-71
2021/09/05 11:17:28;;;;;;;4.03;3.63;;;;;;;22.99;51.63;97850.53;4945925;29;20228;-72
2021/09/05 11:20:04;;;;;;;3.67;3.37;;;;;;;23.00;51.87;97852.25;4947859;29;20302;-71
2021/09/05 11:22:33;;;;;;;3.67;3.37;;;;;;;23.01;51.20;97853.13;4948576;28;20291;-71
2021/09/05 11:25:07;;;;;;;3.77;3.47;;;;;;;23.00;51.05;97857.38;4937397;29;20209;-71
2021/09/05 11:27:34;;;;;;;3.90;3.50;;;;;;;22.94;51.15;97846.06;4941298;29;20224;-70
2021/09/05 11:30:11;;;;;;;3.57;3.27;;;;;;;22.85;51.58;97833.00;4937224;29;20291;-71
2021/09/05 11:32:39;;;;;;;3.73;3.43;;;;;;;22.90;51.70;97839.13;4932763;29;20204;-68
2021/09/05 11:35:07;;;;;;;3.20;2.90;;;;;;;23.02;51.56;97857.44;4924948;29;20228;-70
2021/09/05 11:37:36;;;;;;;3.57;3.27;;;;;;;22.86;50.84;97829.63;4936359;29;20208;-72
2021/09/05 11:40:11;;;;;;;3.30;3.00;;;;;;;22.85;50.74;97831.31;4938229;29;20237;-70
2021/09/05 11:42:45;;;;;;;3.43;3.20;;;;;;;22.77;51.16;97806.31;4937580;29;20228;-70
2021/09/05 11:45:13;;;;;;;3.60;3.30;;;;;;;22.90;51.32;97841.69;4937580;29;20263;-71